Terminal Aerodrome Forecast
Issued by NWS

Home | Current Version | Previous Version | Text Only | Print | Product List | Glossary On
Versions: 1 2 3 4 5 6 7 8 9 10 11 12 13 14 15 16 17 18 19 20 21 22 23 24 25 26 27 28 29 30 31 32 33 34 35 36 37 38 39 40
000
FTUS46 KOTX 100520
TAFPUW
TAF
KPUW 100520Z 1006/1106 11007KT 3SM -SN BR SCT007 BKN014 OVC040
     FM101000 15007KT 1SM -SN OVC005
     FM101600 23006KT 5SM BR BKN015 OVC025
     FM101800 25009G15KT 6SM BR VCSH BKN007 OVC015
     FM110500 16006G12KT 3SM -SN SCT007 BKN015 OVC030=

USA.gov is the U.S. government's official web portal to all federal, state and local government web resources and services.